sensor_id;sensor_type;location;lat;lon;timestamp;P1;durP1;ratioP1;P2;durP2;ratioP2
48052;SDS011;33824;51.600;5.718;2022-12-18T00:00:45;57.03;;;21.65;;
48052;SDS011;33824;51.600;5.718;2022-12-18T00:03:35;64.30;;;22.88;;
48052;SDS011;33824;51.600;5.718;2022-12-18T00:06:01;66.93;;;21.77;;
48052;SDS011;33824;51.600;5.718;2022-12-18T00:08:27;69.30;;;22.60;;
48052;SDS011;33824;51.600;5.718;2022-12-18T00:10:53;61.90;;;23.33;;
48052;SDS011;33824;51.600;5.718;2022-12-18T00:13:18;62.97;;;23.52;;
48052;SDS011;33824;51.600;5.718;2022-12-18T00:15:44;61.65;;;22.90;;
48052;SDS011;33824;51.600;5.718;2022-12-18T00:18:10;56.78;;;21.83;;
48052;SDS011;33824;51.600;5.718;2022-12-18T00:20:36;61.15;;;21.67;;
48052;SDS011;33824;51.600;5.718;2022-12-18T00:23:02;68.85;;;24.10;;
48052;SDS011;33824;51.600;5.718;2022-12-18T00:25:28;63.38;;;22.38;;
48052;SDS011;33824;51.600;5.718;2022-12-18T00:27:53;54.58;;;19.52;;
48052;SDS011;33824;51.600;5.718;2022-12-18T00:30:19;68.57;;;24.15;;
48052;SDS011;33824;51.600;5.718;2022-12-18T00:32:44;59.17;;;20.88;;
48052;SDS011;33824;51.600;5.718;2022-12-18T00:35:10;62.03;;;22.08;;
48052;SDS011;33824;51.600;5.718;2022-12-18T00:37:35;56.45;;;22.42;;
48052;SDS011;33824;51.600;5.718;2022-12-18T00:40:02;65.53;;;22.60;;
48052;SDS011;33824;51.600;5.718;2022-12-18T00:42:28;59.13;;;22.55;;
48052;SDS011;33824;51.600;5.718;2022-12-18T00:45:12;63.00;;;22.75;;
48052;SDS011;33824;51.600;5.718;2022-12-18T00:47:38;62.10;;;23.13;;
48052;SDS011;33824;51.600;5.718;2022-12-18T00:50:04;56.60;;;22.27;;
48052;SDS011;33824;51.600;5.718;2022-12-18T00:52:29;56.13;;;22.63;;
48052;SDS011;33824;51.600;5.718;2022-12-18T00:54:55;55.22;;;21.40;;
48052;SDS011;33824;51.600;5.718;2022-12-18T00:57:20;65.20;;;22.67;;
48052;SDS011;33824;51.600;5.718;2022-12-18T00:59:46;58.17;;;21.77;;
48052;SDS011;33824;51.600;5.718;2022-12-18T01:02:11;63.10;;;20.73;;
48052;SDS011;33824;51.600;5.718;2022-12-18T01:04:38;64.38;;;23.10;;
48052;SDS011;33824;51.600;5.718;2022-12-18T01:07:04;49.00;;;19.08;;
48052;SDS011;33824;51.600;5.718;2022-12-18T01:09:29;70.82;;;22.88;;
48052;SDS011;33824;51.600;5.718;2022-12-18T01:11:55;56.22;;;20.25;;
48052;SDS011;33824;51.600;5.718;2022-12-18T01:14:20;58.80;;;20.45;;
48052;SDS011;33824;51.600;5.718;2022-12-18T01:16:46;57.30;;;21.15;;
48052;SDS011;33824;51.600;5.718;2022-12-18T01:19:12;52.67;;;18.30;;
48052;SDS011;33824;51.600;5.718;2022-12-18T01:21:37;54.55;;;20.73;;
48052;SDS011;33824;51.600;5.718;2022-12-18T01:24:03;52.53;;;19.13;;
48052;SDS011;33824;51.600;5.718;2022-12-18T01:26:28;55.58;;;21.17;;
48052;SDS011;33824;51.600;5.718;2022-12-18T01:28:55;57.22;;;20.55;;
48052;SDS011;33824;51.600;5.718;2022-12-18T01:31:28;53.97;;;20.27;;
48052;SDS011;33824;51.600;5.718;2022-12-18T01:33:56;50.97;;;18.58;;
48052;SDS011;33824;51.600;5.718;2022-12-18T01:36:27;58.97;;;20.90;;
48052;SDS011;33824;51.600;5.718;2022-12-18T01:38:54;48.47;;;18.58;;
48052;SDS011;33824;51.600;5.718;2022-12-18T01:41:25;52.85;;;21.00;;
48052;SDS011;33824;51.600;5.718;2022-12-18T01:49:56;46.45;;;19.27;;
48052;SDS011;33824;51.600;5.718;2022-12-18T01:52:24;46.20;;;19.27;;
48052;SDS011;33824;51.600;5.718;2022-12-18T01:54:53;50.92;;;19.33;;
48052;SDS011;33824;51.600;5.718;2022-12-18T01:57:20;48.38;;;19.60;;
48052;SDS011;33824;51.600;5.718;2022-12-18T01:59:47;46.92;;;18.52;;
48052;SDS011;33824;51.600;5.718;2022-12-18T02:02:15;49.80;;;19.52;;
48052;SDS011;33824;51.600;5.718;2022-12-18T02:04:42;45.65;;;19.27;;
48052;SDS011;33824;51.600;5.718;2022-12-18T02:07:13;43.65;;;18.25;;
48052;SDS011;33824;51.600;5.718;2022-12-18T02:09:49;45.92;;;17.98;;
48052;SDS011;33824;51.600;5.718;2022-12-18T02:12:22;41.40;;;16.88;;
48052;SDS011;33824;51.600;5.718;2022-12-18T02:14:55;47.92;;;19.05;;
48052;SDS011;33824;51.600;5.718;2022-12-18T02:17:24;49.47;;;17.10;;
48052;SDS011;33824;51.600;5.718;2022-12-18T02:22:48;44.80;;;18.70;;
48052;SDS011;33824;51.600;5.718;2022-12-18T02:28:33;38.60;;;17.02;;
48052;SDS011;33824;51.600;5.718;2022-12-18T02:31:05;40.70;;;17.88;;
48052;SDS011;33824;51.600;5.718;2022-12-18T02:33:35;49.17;;;18.48;;
48052;SDS011;33824;51.600;5.718;2022-12-18T02:36:02;40.35;;;17.15;;
48052;SDS011;33824;51.600;5.718;2022-12-18T02:38:29;49.63;;;18.15;;
48052;SDS011;33824;51.600;5.718;2022-12-18T02:40:56;46.10;;;17.65;;
48052;SDS011;33824;51.600;5.718;2022-12-18T02:43:23;46.20;;;19.17;;
48052;SDS011;33824;51.600;5.718;2022-12-18T02:45:49;48.35;;;19.13;;
48052;SDS011;33824;51.600;5.718;2022-12-18T02:48:19;40.95;;;17.42;;
48052;SDS011;33824;51.600;5.718;2022-12-18T02:51:10;41.38;;;17.55;;
48052;SDS011;33824;51.600;5.718;2022-12-18T02:53:44;43.53;;;17.63;;
48052;SDS011;33824;51.600;5.718;2022-12-18T02:56:16;47.40;;;18.58;;
48052;SDS011;33824;51.600;5.718;2022-12-18T02:58:58;42.30;;;16.80;;
48052;SDS011;33824;51.600;5.718;2022-12-18T03:01:42;40.35;;;16.85;;
48052;SDS011;33824;51.600;5.718;2022-12-18T03:04:25;34.53;;;16.33;;
48052;SDS011;33824;51.600;5.718;2022-12-18T03:06:56;39.97;;;16.40;;
48052;SDS011;33824;51.600;5.718;2022-12-18T03:09:33;37.58;;;15.25;;
48052;SDS011;33824;51.600;5.718;2022-12-18T03:12:05;39.78;;;16.80;;
48052;SDS011;33824;51.600;5.718;2022-12-18T03:14:49;38.90;;;15.73;;
48052;SDS011;33824;51.600;5.718;2022-12-18T03:19:47;39.65;;;17.08;;
48052;SDS011;33824;51.600;5.718;2022-12-18T03:22:15;35.83;;;16.67;;
48052;SDS011;33824;51.600;5.718;2022-12-18T03:24:41;37.95;;;17.27;;
48052;SDS011;33824;51.600;5.718;2022-12-18T03:27:09;39.80;;;14.82;;
48052;SDS011;33824;51.600;5.718;2022-12-18T03:29:40;37.25;;;15.70;;
48052;SDS011;33824;51.600;5.718;2022-12-18T03:32:12;36.63;;;15.57;;
48052;SDS011;33824;51.600;5.718;2022-12-18T03:34:46;37.45;;;15.40;;
48052;SDS011;33824;51.600;5.718;2022-12-18T03:37:14;36.22;;;14.38;;
48052;SDS011;33824;51.600;5.718;2022-12-18T03:39:40;34.13;;;14.05;;
48052;SDS011;33824;51.600;5.718;2022-12-18T03:42:10;34.67;;;13.48;;
48052;SDS011;33824;51.600;5.718;2022-12-18T03:49:49;34.90;;;14.60;;
48052;SDS011;33824;51.600;5.718;2022-12-18T03:52:20;29.55;;;12.80;;
48052;SDS011;33824;51.600;5.718;2022-12-18T03:57:28;37.85;;;14.93;;
48052;SDS011;33824;51.600;5.718;2022-12-18T03:59:56;35.83;;;14.40;;
48052;SDS011;33824;51.600;5.718;2022-12-18T04:02:25;31.88;;;14.00;;
48052;SDS011;33824;51.600;5.718;2022-12-18T04:04:55;36.83;;;14.73;;
48052;SDS011;33824;51.600;5.718;2022-12-18T04:07:24;29.58;;;13.55;;
48052;SDS011;33824;51.600;5.718;2022-12-18T04:09:50;30.98;;;14.40;;
48052;SDS011;33824;51.600;5.718;2022-12-18T04:12:20;30.45;;;13.25;;
48052;SDS011;33824;51.600;5.718;2022-12-18T04:14:46;32.92;;;14.35;;
48052;SDS011;33824;51.600;5.718;2022-12-18T04:17:11;30.95;;;12.65;;
48052;SDS011;33824;51.600;5.718;2022-12-18T04:19:37;25.67;;;11.65;;
48052;SDS011;33824;51.600;5.718;2022-12-18T04:22:02;30.48;;;13.38;;
48052;SDS011;33824;51.600;5.718;2022-12-18T04:24:28;28.38;;;13.10;;
48052;SDS011;33824;51.600;5.718;2022-12-18T04:26:53;30.67;;;13.38;;
48052;SDS011;33824;51.600;5.718;2022-12-18T04:29:19;34.00;;;13.10;;
48052;SDS011;33824;51.600;5.718;2022-12-18T04:31:44;36.35;;;13.50;;
48052;SDS011;33824;51.600;5.718;2022-12-18T04:34:10;26.13;;;12.18;;
48052;SDS011;33824;51.600;5.718;2022-12-18T04:36:36;28.17;;;12.18;;
48052;SDS011;33824;51.600;5.718;2022-12-18T04:39:02;27.27;;;12.05;;
48052;SDS011;33824;51.600;5.718;2022-12-18T04:41:27;29.67;;;11.50;;
48052;SDS011;33824;51.600;5.718;2022-12-18T04:43:53;30.25;;;12.73;;
48052;SDS011;33824;51.600;5.718;2022-12-18T04:46:19;27.30;;;11.93;;
48052;SDS011;33824;51.600;5.718;2022-12-18T04:48:45;34.50;;;13.00;;
48052;SDS011;33824;51.600;5.718;2022-12-18T04:51:12;27.52;;;11.40;;
48052;SDS011;33824;51.600;5.718;2022-12-18T04:53:38;23.40;;;11.18;;
48052;SDS011;33824;51.600;5.718;2022-12-18T04:56:04;26.77;;;12.00;;
48052;SDS011;33824;51.600;5.718;2022-12-18T04:58:32;24.77;;;11.10;;
48052;SDS011;33824;51.600;5.718;2022-12-18T05:00:57;31.35;;;12.30;;
48052;SDS011;33824;51.600;5.718;2022-12-18T05:03:23;25.08;;;11.43;;
48052;SDS011;33824;51.600;5.718;2022-12-18T05:05:49;24.63;;;11.40;;
48052;SDS011;33824;51.600;5.718;2022-12-18T05:08:16;27.70;;;11.57;;
48052;SDS011;33824;51.600;5.718;2022-12-18T05:10:41;26.75;;;12.32;;
48052;SDS011;33824;51.600;5.718;2022-12-18T05:13:07;25.73;;;11.85;;
48052;SDS011;33824;51.600;5.718;2022-12-18T05:15:33;26.77;;;11.55;;
48052;SDS011;33824;51.600;5.718;2022-12-18T05:17:59;24.42;;;12.02;;
48052;SDS011;33824;51.600;5.718;2022-12-18T05:20:25;33.40;;;13.27;;
48052;SDS011;33824;51.600;5.718;2022-12-18T05:22:52;25.20;;;11.48;;
48052;SDS011;33824;51.600;5.718;2022-12-18T05:25:18;29.17;;;12.35;;
48052;SDS011;33824;51.600;5.718;2022-12-18T05:27:44;24.08;;;11.77;;
48052;SDS011;33824;51.600;5.718;2022-12-18T05:30:10;24.98;;;12.45;;
48052;SDS011;33824;51.600;5.718;2022-12-18T05:32:36;27.92;;;12.80;;
48052;SDS011;33824;51.600;5.718;2022-12-18T05:35:02;25.63;;;12.05;;
48052;SDS011;33824;51.600;5.718;2022-12-18T05:37:29;33.53;;;11.18;;
48052;SDS011;33824;51.600;5.718;2022-12-18T05:39:54;28.38;;;12.20;;
48052;SDS011;33824;51.600;5.718;2022-12-18T05:42:20;28.15;;;11.35;;
48052;SDS011;33824;51.600;5.718;2022-12-18T05:44:45;27.42;;;12.98;;
48052;SDS011;33824;51.600;5.718;2022-12-18T05:47:11;29.55;;;13.10;;
48052;SDS011;33824;51.600;5.718;2022-12-18T05:49:36;28.88;;;12.88;;
48052;SDS011;33824;51.600;5.718;2022-12-18T05:52:02;28.08;;;12.10;;
48052;SDS011;33824;51.600;5.718;2022-12-18T05:54:27;29.23;;;11.15;;
48052;SDS011;33824;51.600;5.718;2022-12-18T05:56:53;27.17;;;11.43;;
48052;SDS011;33824;51.600;5.718;2022-12-18T05:59:21;26.00;;;10.73;;
48052;SDS011;33824;51.600;5.718;2022-12-18T06:01:47;27.77;;;11.95;;
48052;SDS011;33824;51.600;5.718;2022-12-18T06:04:12;25.45;;;11.88;;
48052;SDS011;33824;51.600;5.718;2022-12-18T06:06:38;26.45;;;10.88;;
48052;SDS011;33824;51.600;5.718;2022-12-18T06:09:04;25.85;;;10.70;;
48052;SDS011;33824;51.600;5.718;2022-12-18T06:11:34;27.35;;;11.95;;
48052;SDS011;33824;51.600;5.718;2022-12-18T06:14:01;25.63;;;11.77;;
48052;SDS011;33824;51.600;5.718;2022-12-18T06:16:27;26.88;;;11.43;;
48052;SDS011;33824;51.600;5.718;2022-12-18T06:18:57;23.45;;;11.23;;
48052;SDS011;33824;51.600;5.718;2022-12-18T06:21:23;28.42;;;13.18;;
48052;SDS011;33824;51.600;5.718;2022-12-18T06:23:49;25.73;;;12.52;;
48052;SDS011;33824;51.600;5.718;2022-12-18T06:26:14;25.55;;;11.57;;
48052;SDS011;33824;51.600;5.718;2022-12-18T06:28:40;28.20;;;11.48;;
48052;SDS011;33824;51.600;5.718;2022-12-18T06:31:06;28.10;;;11.40;;
48052;SDS011;33824;51.600;5.718;2022-12-18T06:33:32;26.90;;;11.27;;
48052;SDS011;33824;51.600;5.718;2022-12-18T06:36:01;28.02;;;11.85;;
48052;SDS011;33824;51.600;5.718;2022-12-18T06:38:29;24.67;;;11.07;;
48052;SDS011;33824;51.600;5.718;2022-12-18T06:40:54;27.92;;;11.07;;
48052;SDS011;33824;51.600;5.718;2022-12-18T06:43:20;25.27;;;10.02;;
48052;SDS011;33824;51.600;5.718;2022-12-18T06:45:45;25.20;;;11.77;;
48052;SDS011;33824;51.600;5.718;2022-12-18T06:48:17;27.25;;;12.38;;
48052;SDS011;33824;51.600;5.718;2022-12-18T06:50:46;27.05;;;12.48;;
48052;SDS011;33824;51.600;5.718;2022-12-18T06:53:12;22.35;;;10.35;;
48052;SDS011;33824;51.600;5.718;2022-12-18T06:55:37;29.95;;;12.82;;
48052;SDS011;33824;51.600;5.718;2022-12-18T06:58:03;23.75;;;10.43;;
48052;SDS011;33824;51.600;5.718;2022-12-18T07:00:28;24.67;;;10.65;;
48052;SDS011;33824;51.600;5.718;2022-12-18T07:02:54;26.67;;;10.75;;
48052;SDS011;33824;51.600;5.718;2022-12-18T07:05:19;25.10;;;10.10;;
48052;SDS011;33824;51.600;5.718;2022-12-18T07:07:45;25.75;;;11.32;;
48052;SDS011;33824;51.600;5.718;2022-12-18T07:10:11;22.17;;;10.00;;
48052;SDS011;33824;51.600;5.718;2022-12-18T07:12:36;29.88;;;11.50;;
48052;SDS011;33824;51.600;5.718;2022-12-18T07:15:02;22.58;;;10.35;;
48052;SDS011;33824;51.600;5.718;2022-12-18T07:17:28;29.15;;;10.77;;
48052;SDS011;33824;51.600;5.718;2022-12-18T07:19:54;23.55;;;11.68;;
48052;SDS011;33824;51.600;5.718;2022-12-18T07:22:20;24.58;;;11.05;;
48052;SDS011;33824;51.600;5.718;2022-12-18T07:24:46;27.40;;;11.60;;
48052;SDS011;33824;51.600;5.718;2022-12-18T07:27:12;22.23;;;10.32;;
48052;SDS011;33824;51.600;5.718;2022-12-18T07:29:37;25.65;;;10.52;;
48052;SDS011;33824;51.600;5.718;2022-12-18T07:32:03;26.50;;;10.93;;
48052;SDS011;33824;51.600;5.718;2022-12-18T07:34:29;26.80;;;11.65;;
48052;SDS011;33824;51.600;5.718;2022-12-18T07:36:54;22.15;;;10.55;;
48052;SDS011;33824;51.600;5.718;2022-12-18T07:39:20;22.00;;;10.23;;
48052;SDS011;33824;51.600;5.718;2022-12-18T07:41:45;26.88;;;10.98;;
48052;SDS011;33824;51.600;5.718;2022-12-18T07:44:31;24.90;;;10.57;;
48052;SDS011;33824;51.600;5.718;2022-12-18T07:46:56;22.40;;;9.85;;
48052;SDS011;33824;51.600;5.718;2022-12-18T07:49:22;28.70;;;11.55;;
48052;SDS011;33824;51.600;5.718;2022-12-18T07:51:49;28.13;;;11.23;;
48052;SDS011;33824;51.600;5.718;2022-12-18T07:54:14;22.58;;;10.90;;
48052;SDS011;33824;51.600;5.718;2022-12-18T07:56:40;25.20;;;10.30;;
48052;SDS011;33824;51.600;5.718;2022-12-18T07:59:06;25.27;;;9.95;;
48052;SDS011;33824;51.600;5.718;2022-12-18T08:01:32;25.90;;;11.02;;
48052;SDS011;33824;51.600;5.718;2022-12-18T08:03:58;31.13;;;12.93;;
48052;SDS011;33824;51.600;5.718;2022-12-18T08:06:24;22.45;;;9.93;;
48052;SDS011;33824;51.600;5.718;2022-12-18T08:08:51;26.42;;;10.25;;
48052;SDS011;33824;51.600;5.718;2022-12-18T08:11:17;22.95;;;10.13;;
48052;SDS011;33824;51.600;5.718;2022-12-18T08:13:43;24.63;;;11.43;;
48052;SDS011;33824;51.600;5.718;2022-12-18T08:16:08;27.05;;;11.52;;
48052;SDS011;33824;51.600;5.718;2022-12-18T08:18:35;30.50;;;11.13;;
48052;SDS011;33824;51.600;5.718;2022-12-18T08:21:12;24.58;;;10.70;;
48052;SDS011;33824;51.600;5.718;2022-12-18T08:23:40;28.10;;;11.27;;
48052;SDS011;33824;51.600;5.718;2022-12-18T08:26:05;23.65;;;9.98;;
48052;SDS011;33824;51.600;5.718;2022-12-18T08:28:31;23.15;;;10.18;;
48052;SDS011;33824;51.600;5.718;2022-12-18T08:30:57;25.75;;;11.27;;
48052;SDS011;33824;51.600;5.718;2022-12-18T08:33:22;30.92;;;12.05;;
48052;SDS011;33824;51.600;5.718;2022-12-18T08:35:48;24.30;;;10.65;;
48052;SDS011;33824;51.600;5.718;2022-12-18T08:38:14;27.42;;;11.23;;
48052;SDS011;33824;51.600;5.718;2022-12-18T08:40:39;32.53;;;11.63;;
48052;SDS011;33824;51.600;5.718;2022-12-18T08:43:05;24.25;;;11.82;;
48052;SDS011;33824;51.600;5.718;2022-12-18T08:45:49;26.52;;;10.80;;
48052;SDS011;33824;51.600;5.718;2022-12-18T08:48:15;22.67;;;10.43;;
48052;SDS011;33824;51.600;5.718;2022-12-18T08:50:41;28.65;;;10.70;;
48052;SDS011;33824;51.600;5.718;2022-12-18T08:53:06;25.30;;;11.02;;
48052;SDS011;33824;51.600;5.718;2022-12-18T08:55:32;26.95;;;11.45;;
48052;SDS011;33824;51.600;5.718;2022-12-18T08:57:57;22.70;;;10.25;;
48052;SDS011;33824;51.600;5.718;2022-12-18T09:00:23;24.23;;;10.45;;
48052;SDS011;33824;51.600;5.718;2022-12-18T09:02:48;25.58;;;10.30;;
48052;SDS011;33824;51.600;5.718;2022-12-18T09:05:14;27.10;;;11.10;;
48052;SDS011;33824;51.600;5.718;2022-12-18T09:07:40;24.05;;;10.82;;
48052;SDS011;33824;51.600;5.718;2022-12-18T09:10:05;23.33;;;10.45;;
48052;SDS011;33824;51.600;5.718;2022-12-18T09:12:31;33.50;;;11.10;;
48052;SDS011;33824;51.600;5.718;2022-12-18T09:14:57;23.77;;;10.35;;
48052;SDS011;33824;51.600;5.718;2022-12-18T09:17:22;23.70;;;9.38;;
48052;SDS011;33824;51.600;5.718;2022-12-18T09:19:48;27.52;;;11.23;;
48052;SDS011;33824;51.600;5.718;2022-12-18T09:22:14;24.42;;;11.18;;
48052;SDS011;33824;51.600;5.718;2022-12-18T09:24:41;23.50;;;10.30;;
48052;SDS011;33824;51.600;5.718;2022-12-18T09:27:07;25.52;;;11.02;;
48052;SDS011;33824;51.600;5.718;2022-12-18T09:29:32;25.40;;;11.10;;
48052;SDS011;33824;51.600;5.718;2022-12-18T09:31:58;22.23;;;10.82;;
48052;SDS011;33824;51.600;5.718;2022-12-18T09:34:24;29.50;;;10.18;;
48052;SDS011;33824;51.600;5.718;2022-12-18T09:36:49;25.85;;;10.73;;
48052;SDS011;33824;51.600;5.718;2022-12-18T09:39:15;27.50;;;10.30;;
48052;SDS011;33824;51.600;5.718;2022-12-18T09:44:29;23.52;;;10.30;;
48052;SDS011;33824;51.600;5.718;2022-12-18T09:49:31;28.33;;;11.18;;
48052;SDS011;33824;51.600;5.718;2022-12-18T09:52:09;22.95;;;10.00;;
48052;SDS011;33824;51.600;5.718;2022-12-18T09:54:39;25.13;;;11.13;;
48052;SDS011;33824;51.600;5.718;2022-12-18T09:57:10;25.30;;;10.70;;
48052;SDS011;33824;51.600;5.718;2022-12-18T09:59:42;28.00;;;11.35;;
48052;SDS011;33824;51.600;5.718;2022-12-18T10:02:20;20.80;;;10.07;;
48052;SDS011;33824;51.600;5.718;2022-12-18T10:05:02;26.58;;;10.95;;
48052;SDS011;33824;51.600;5.718;2022-12-18T10:10:27;27.60;;;11.52;;
48052;SDS011;33824;51.600;5.718;2022-12-18T10:13:02;29.30;;;11.37;;
48052;SDS011;33824;51.600;5.718;2022-12-18T10:18:17;25.30;;;10.25;;
48052;SDS011;33824;51.600;5.718;2022-12-18T10:20:55;26.02;;;11.65;;
48052;SDS011;33824;51.600;5.718;2022-12-18T10:23:43;26.35;;;11.43;;
48052;SDS011;33824;51.600;5.718;2022-12-18T10:26:20;24.83;;;10.82;;
48052;SDS011;33824;51.600;5.718;2022-12-18T10:28:46;21.27;;;9.80;;
48052;SDS011;33824;51.600;5.718;2022-12-18T10:31:14;24.63;;;10.20;;
48052;SDS011;33824;51.600;5.718;2022-12-18T10:33:42;29.30;;;10.68;;
48052;SDS011;33824;51.600;5.718;2022-12-18T10:36:08;25.52;;;11.40;;
48052;SDS011;33824;51.600;5.718;2022-12-18T10:38:34;22.08;;;9.95;;
48052;SDS011;33824;51.600;5.718;2022-12-18T10:43:33;25.98;;;10.43;;
48052;SDS011;33824;51.600;5.718;2022-12-18T10:48:41;23.23;;;10.27;;
48052;SDS011;33824;51.600;5.718;2022-12-18T10:53:53;23.38;;;9.75;;
48052;SDS011;33824;51.600;5.718;2022-12-18T10:56:21;22.85;;;9.73;;
48052;SDS011;33824;51.600;5.718;2022-12-18T10:59:22;25.80;;;9.98;;
48052;SDS011;33824;51.600;5.718;2022-12-18T11:01:46;23.17;;;9.70;;
48052;SDS011;33824;51.600;5.718;2022-12-18T11:06:52;21.17;;;9.20;;
48052;SDS011;33824;51.600;5.718;2022-12-18T11:09:29;23.45;;;10.30;;
48052;SDS011;33824;51.600;5.718;2022-12-18T11:12:01;20.13;;;9.38;;
48052;SDS011;33824;51.600;5.718;2022-12-18T11:17:38;19.70;;;9.25;;
48052;SDS011;33824;51.600;5.718;2022-12-18T11:20:06;26.05;;;10.27;;
48052;SDS011;33824;51.600;5.718;2022-12-18T11:22:57;21.15;;;8.82;;
48052;SDS011;33824;51.600;5.718;2022-12-18T11:25:25;24.30;;;9.77;;
48052;SDS011;33824;51.600;5.718;2022-12-18T11:27:51;26.98;;;9.80;;
48052;SDS011;33824;51.600;5.718;2022-12-18T11:32:54;24.08;;;9.50;;
48052;SDS011;33824;51.600;5.718;2022-12-18T11:37:59;21.75;;;9.85;;
48052;SDS011;33824;51.600;5.718;2022-12-18T11:40:33;23.63;;;9.60;;
48052;SDS011;33824;51.600;5.718;2022-12-18T11:43:02;23.58;;;9.77;;
48052;SDS011;33824;51.600;5.718;2022-12-18T11:45:55;26.48;;;10.88;;
48052;SDS011;33824;51.600;5.718;2022-12-18T11:48:45;22.45;;;10.40;;
48052;SDS011;33824;51.600;5.718;2022-12-18T11:51:20;24.13;;;10.40;;
48052;SDS011;33824;51.600;5.718;2022-12-18T11:53:53;22.15;;;9.93;;
48052;SDS011;33824;51.600;5.718;2022-12-18T11:56:39;24.35;;;10.32;;
48052;SDS011;33824;51.600;5.718;2022-12-18T12:15:52;26.17;;;11.52;;
48052;SDS011;33824;51.600;5.718;2022-12-18T12:30:16;21.38;;;9.35;;
48052;SDS011;33824;51.600;5.718;2022-12-18T12:38:34;26.10;;;10.98;;
48052;SDS011;33824;51.600;5.718;2022-12-18T12:41:09;23.40;;;10.52;;
48052;SDS011;33824;51.600;5.718;2022-12-18T12:44:02;26.92;;;10.55;;
48052;SDS011;33824;51.600;5.718;2022-12-18T12:46:31;22.83;;;9.48;;
48052;SDS011;33824;51.600;5.718;2022-12-18T12:49:02;22.60;;;10.70;;
48052;SDS011;33824;51.600;5.718;2022-12-18T12:51:32;24.75;;;10.50;;
48052;SDS011;33824;51.600;5.718;2022-12-18T12:54:00;25.25;;;10.23;;
48052;SDS011;33824;51.600;5.718;2022-12-18T12:56:46;23.65;;;10.25;;
48052;SDS011;33824;51.600;5.718;2022-12-18T12:59:25;21.98;;;9.75;;
48052;SDS011;33824;51.600;5.718;2022-12-18T13:08:10;25.70;;;9.95;;
48052;SDS011;33824;51.600;5.718;2022-12-18T13:10:37;25.15;;;10.23;;
48052;SDS011;33824;51.600;5.718;2022-12-18T13:13:06;22.17;;;10.25;;
48052;SDS011;33824;51.600;5.718;2022-12-18T13:20:37;26.02;;;10.38;;
48052;SDS011;33824;51.600;5.718;2022-12-18T13:25:49;23.38;;;9.75;;
48052;SDS011;33824;51.600;5.718;2022-12-18T13:30:58;24.17;;;10.75;;
48052;SDS011;33824;51.600;5.718;2022-12-18T13:35:51;24.38;;;9.98;;
48052;SDS011;33824;51.600;5.718;2022-12-18T13:38:35;25.02;;;10.15;;
48052;SDS011;33824;51.600;5.718;2022-12-18T13:43:45;22.00;;;10.32;;
48052;SDS011;33824;51.600;5.718;2022-12-18T13:49:04;24.05;;;10.50;;
48052;SDS011;33824;51.600;5.718;2022-12-18T13:51:43;23.85;;;10.48;;
48052;SDS011;33824;51.600;5.718;2022-12-18T13:54:19;26.48;;;10.65;;
48052;SDS011;33824;51.600;5.718;2022-12-18T13:56:52;24.67;;;10.93;;
48052;SDS011;33824;51.600;5.718;2022-12-18T13:59:21;23.42;;;10.60;;
48052;SDS011;33824;51.600;5.718;2022-12-18T14:01:53;24.70;;;9.38;;
48052;SDS011;33824;51.600;5.718;2022-12-18T14:04:27;25.67;;;10.93;;
48052;SDS011;33824;51.600;5.718;2022-12-18T14:07:12;26.65;;;10.90;;
48052;SDS011;33824;51.600;5.718;2022-12-18T14:09:41;24.83;;;10.85;;
48052;SDS011;33824;51.600;5.718;2022-12-18T14:12:14;27.42;;;11.38;;
48052;SDS011;33824;51.600;5.718;2022-12-18T14:15:00;32.70;;;11.60;;
48052;SDS011;33824;51.600;5.718;2022-12-18T14:17:27;26.23;;;10.43;;
48052;SDS011;33824;51.600;5.718;2022-12-18T14:19:53;23.60;;;10.15;;
48052;SDS011;33824;51.600;5.718;2022-12-18T14:22:20;26.70;;;11.07;;
48052;SDS011;33824;51.600;5.718;2022-12-18T14:25:10;22.27;;;9.73;;
48052;SDS011;33824;51.600;5.718;2022-12-18T14:27:45;31.77;;;11.27;;
48052;SDS011;33824;51.600;5.718;2022-12-18T14:33:10;28.33;;;10.68;;
48052;SDS011;33824;51.600;5.718;2022-12-18T14:35:51;27.65;;;11.05;;
48052;SDS011;33824;51.600;5.718;2022-12-18T14:38:21;22.55;;;10.68;;
48052;SDS011;33824;51.600;5.718;2022-12-18T14:40:53;24.02;;;10.73;;
48052;SDS011;33824;51.600;5.718;2022-12-18T14:43:20;24.52;;;10.45;;
48052;SDS011;33824;51.600;5.718;2022-12-18T14:45:48;26.33;;;10.77;;
48052;SDS011;33824;51.600;5.718;2022-12-18T14:48:33;28.02;;;10.02;;
48052;SDS011;33824;51.600;5.718;2022-12-18T14:53:39;26.30;;;11.68;;
48052;SDS011;33824;51.600;5.718;2022-12-18T14:59:01;25.90;;;10.45;;
48052;SDS011;33824;51.600;5.718;2022-12-18T15:01:30;23.00;;;11.00;;
48052;SDS011;33824;51.600;5.718;2022-12-18T15:04:04;24.58;;;10.38;;
48052;SDS011;33824;51.600;5.718;2022-12-18T15:06:48;28.85;;;12.35;;
48052;SDS011;33824;51.600;5.718;2022-12-18T15:09:24;27.27;;;11.93;;
48052;SDS011;33824;51.600;5.718;2022-12-18T15:11:55;25.52;;;11.45;;
48052;SDS011;33824;51.600;5.718;2022-12-18T15:17:00;23.58;;;11.00;;
48052;SDS011;33824;51.600;5.718;2022-12-18T15:19:36;27.67;;;12.05;;
48052;SDS011;33824;51.600;5.718;2022-12-18T15:22:28;26.25;;;11.25;;
48052;SDS011;33824;51.600;5.718;2022-12-18T15:24:58;24.65;;;11.00;;
48052;SDS011;33824;51.600;5.718;2022-12-18T15:27:26;23.15;;;11.38;;
48052;SDS011;33824;51.600;5.718;2022-12-18T15:32:32;28.75;;;12.30;;
48052;SDS011;33824;51.600;5.718;2022-12-18T15:37:40;32.15;;;11.57;;
48052;SDS011;33824;51.600;5.718;2022-12-18T15:40:05;31.55;;;12.73;;
48052;SDS011;33824;51.600;5.718;2022-12-18T15:42:32;31.58;;;11.90;;
48052;SDS011;33824;51.600;5.718;2022-12-18T15:45:16;28.77;;;11.90;;
48052;SDS011;33824;51.600;5.718;2022-12-18T15:47:41;29.08;;;11.43;;
48052;SDS011;33824;51.600;5.718;2022-12-18T15:50:07;27.67;;;12.07;;
48052;SDS011;33824;51.600;5.718;2022-12-18T15:52:38;21.35;;;10.70;;
48052;SDS011;33824;51.600;5.718;2022-12-18T15:55:16;30.67;;;13.30;;
48052;SDS011;33824;51.600;5.718;2022-12-18T15:58:03;26.55;;;11.35;;
48052;SDS011;33824;51.600;5.718;2022-12-18T16:00:29;25.30;;;10.80;;
48052;SDS011;33824;51.600;5.718;2022-12-18T16:02:55;30.20;;;12.85;;
48052;SDS011;33824;51.600;5.718;2022-12-18T16:05:24;30.00;;;12.75;;
48052;SDS011;33824;51.600;5.718;2022-12-18T16:07:51;41.10;;;15.20;;
48052;SDS011;33824;51.600;5.718;2022-12-18T16:10:16;38.97;;;15.52;;
48052;SDS011;33824;51.600;5.718;2022-12-18T16:12:42;41.03;;;16.02;;
48052;SDS011;33824;51.600;5.718;2022-12-18T16:15:09;33.05;;;12.65;;
48052;SDS011;33824;51.600;5.718;2022-12-18T16:17:39;33.10;;;13.18;;
48052;SDS011;33824;51.600;5.718;2022-12-18T16:20:07;29.52;;;12.15;;
48052;SDS011;33824;51.600;5.718;2022-12-18T16:22:44;26.95;;;11.10;;
48052;SDS011;33824;51.600;5.718;2022-12-18T16:25:18;33.35;;;11.68;;
48052;SDS011;33824;51.600;5.718;2022-12-18T16:27:48;32.33;;;12.93;;
48052;SDS011;33824;51.600;5.718;2022-12-18T16:30:15;35.83;;;13.13;;
48052;SDS011;33824;51.600;5.718;2022-12-18T16:32:42;29.15;;;12.52;;
48052;SDS011;33824;51.600;5.718;2022-12-18T16:35:11;27.65;;;11.88;;
48052;SDS011;33824;51.600;5.718;2022-12-18T16:37:39;29.40;;;13.35;;
48052;SDS011;33824;51.600;5.718;2022-12-18T16:40:06;33.63;;;12.80;;
48052;SDS011;33824;51.600;5.718;2022-12-18T16:42:34;30.90;;;13.75;;